Time;durP1;ratioP1;P1;durP2;ratioP2;P2;SDS_P1;SDS_P2;PMS_P1;PMS_P2;Temp;Humidity;BMP_temperature;BMP_pressure;BME280_temperature;BME280_humidity;BME280_pressure;Samples;Min_cycle;Max_cycle;Signal;HPM_P1;HPM_P2
2021/12/07 00:01:50;;;;;;;12.00;6.20;;;1.00;99.90;;;;;;5033077;28;20461;-68
2021/12/07 00:04:16;;;;;;;11.17;5.83;;;1.00;99.90;;;;;;5033430;28;20421;-69
2021/12/07 00:06:42;;;;;;;13.47;5.63;;;1.10;99.90;;;;;;5033207;28;20900;-69
2021/12/07 00:09:12;;;;;;;8.73;6.90;;;1.10;99.90;;;;;;5033178;28;20774;-68
2021/12/07 00:11:37;;;;;;;7.10;5.07;;;1.00;99.90;;;;;;5033321;28;20437;-68
2021/12/07 00:14:11;;;;;;;12.03;7.33;;;0.90;99.90;;;;;;5033398;28;20410;-68
2021/12/07 00:16:38;;;;;;;6.40;5.40;;;0.90;99.90;;;;;;5032818;28;20442;-68
2021/12/07 00:19:04;;;;;;;6.47;4.73;;;0.80;99.90;;;;;;5033243;28;20395;-68
2021/12/07 00:21:32;;;;;;;13.43;7.20;;;0.90;99.90;;;;;;5032359;28;20883;-69
2021/12/07 00:23:58;;;;;;;11.10;5.70;;;0.90;99.90;;;;;;5032331;28;20414;-68
2021/12/07 00:26:23;;;;;;;11.83;6.23;;;0.70;99.90;;;;;;5032353;28;20412;-69
2021/12/07 00:28:50;;;;;;;5.93;5.33;;;0.60;99.90;;;;;;5032506;28;20167;-69
2021/12/07 00:31:28;;;;;;;13.70;6.07;;;0.60;99.90;;;;;;5033039;28;20191;-69
2021/12/07 00:34:25;;;;;;;11.87;4.23;;;0.50;99.90;;;;;;5033222;28;20896;-68
2021/12/07 00:36:45;;;;;;;8.10;4.73;;;0.50;99.90;;;;;;5033369;28;20521;-69
2021/12/07 00:39:13;;;;;;;10.90;5.60;;;0.40;99.90;;;;;;5034970;28;20410;-69
2021/12/07 00:41:40;;;;;;;9.90;3.83;;;0.30;99.90;;;;;;5034959;28;20458;-69
2021/12/07 00:44:06;;;;;;;12.23;4.60;;;0.30;99.90;;;;;;5033659;28;20454;-69
2021/12/07 00:46:33;;;;;;;12.43;7.23;;;0.30;99.90;;;;;;5032502;28;20437;-69
2021/12/07 00:48:59;;;;;;;5.57;4.03;;;0.30;99.90;;;;;;5032547;28;20993;-69
2021/12/07 00:51:25;;;;;;;8.67;4.73;;;0.30;99.90;;;;;;5033008;28;20466;-68
2021/12/07 00:53:51;;;;;;;5.77;4.50;;;0.20;99.90;;;;;;5033353;28;20908;-68
2021/12/07 00:56:17;;;;;;;8.27;5.20;;;0.20;99.90;;;;;;5032865;28;20410;-70
2021/12/07 00:58:43;;;;;;;7.90;4.87;;;0.10;99.90;;;;;;5032185;28;20818;-69
2021/12/07 01:01:12;;;;;;;15.20;6.67;;;0.10;99.90;;;;;;5032138;28;20200;-68
2021/12/07 01:03:38;;;;;;;5.93;5.30;;;0.10;99.90;;;;;;5032105;28;20175;-68
2021/12/07 01:25:10;;;;;;;8.10;4.77;;;0.10;99.90;;;;;;5031679;28;20454;-70
2021/12/07 01:27:37;;;;;;;2.40;2.20;;;0.10;99.90;;;;;;5031981;28;20437;-70
2021/12/07 01:30:21;;;;;;;4.10;3.07;;;0.10;99.90;;;;;;5031714;28;20171;-70
2021/12/07 01:38:19;;;;;;;10.30;4.90;;;0.00;99.90;;;;;;5032997;28;20189;-70
2021/12/07 01:40:57;;;;;;;8.33;4.53;;;0.00;99.90;;;;;;5032880;28;20418;-69
2021/12/07 01:43:42;;;;;;;5.40;3.97;;;-0.10;99.90;;;;;;5032395;28;20484;-69
2021/12/07 01:46:39;;;;;;;5.30;3.30;;;-0.10;99.90;;;;;;5032373;28;20414;-69
2021/12/07 01:59:49;;;;;;;6.87;3.43;;;-0.20;99.90;;;;;;5031895;28;20795;-69
2021/12/07 02:02:16;;;;;;;4.13;3.83;;;-0.20;99.90;;;;;;5031484;28;20465;-69
2021/12/07 02:04:42;;;;;;;7.57;5.37;;;-0.30;99.90;;;;;;5031876;28;20406;-68
2021/12/07 02:07:08;;;;;;;7.27;3.60;;;-0.30;99.90;;;;;;5031730;28;20489;-69
2021/12/07 02:09:37;;;;;;;8.97;4.30;;;-0.30;99.90;;;;;;5031605;28;20948;-69
2021/12/07 02:12:06;;;;;;;11.40;5.40;;;-0.30;99.90;;;;;;5031831;28;20442;-69
2021/12/07 02:14:33;;;;;;;4.80;4.43;;;-0.30;99.90;;;;;;5031632;28;20410;-70
2021/12/07 02:17:02;;;;;;;7.10;4.63;;;-0.30;99.90;;;;;;5031710;28;20411;-70
2021/12/07 02:19:28;;;;;;;7.80;4.97;;;-0.30;99.90;;;;;;5031617;28;20438;-69
2021/12/07 02:21:54;;;;;;;9.50;5.23;;;-0.30;99.90;;;;;;5031423;28;20950;-70
2021/12/07 02:24:20;;;;;;;4.27;3.87;;;-0.40;99.90;;;;;;5031556;28;20253;-70
2021/12/07 02:26:47;;;;;;;9.77;4.07;;;-0.40;99.90;;;;;;5031340;28;20445;-70
2021/12/07 02:29:14;;;;;;;8.40;4.70;;;-0.40;99.90;;;;;;5031598;28;20183;-69
2021/12/07 02:31:40;;;;;;;4.57;2.50;;;-0.40;99.90;;;;;;5030158;28;20441;-70
2021/12/07 02:34:06;;;;;;;9.63;5.07;;;-0.40;99.90;;;;;;5031563;28;20462;-69
2021/12/07 02:36:33;;;;;;;7.57;5.13;;;-0.40;99.90;;;;;;5031437;28;20421;-69
2021/12/07 02:38:59;;;;;;;5.77;3.03;;;-0.40;99.90;;;;;;5031549;28;20488;-70
2021/12/07 02:41:24;;;;;;;5.10;4.63;;;-0.40;99.90;;;;;;5031126;28;20508;-70
2021/12/07 02:43:50;;;;;;;2.07;1.87;;;-0.40;99.90;;;;;;5031283;28;20462;-70
2021/12/07 02:46:16;;;;;;;3.67;3.33;;;-0.40;99.90;;;;;;5031264;28;20190;-70
2021/12/07 02:48:41;;;;;;;11.50;6.00;;;-0.40;99.90;;;;;;5030172;28;20168;-69
2021/12/07 02:51:07;;;;;;;5.03;4.20;;;-0.40;99.90;;;;;;5028300;28;20210;-70
2021/12/07 02:53:34;;;;;;;5.47;4.87;;;-0.40;99.90;;;;;;5031323;28;20164;-69
2021/12/07 02:56:02;;;;;;;4.57;3.20;;;-0.40;99.90;;;;;;5031267;28;20172;-70
2021/12/07 02:58:27;;;;;;;6.07;3.87;;;-0.40;99.90;;;;;;5031455;28;20414;-70
2021/12/07 03:01:02;;;;;;;6.70;5.80;;;-0.40;99.90;;;;;;5031126;28;20785;-69
2021/12/07 03:03:31;;;;;;;10.17;5.07;;;-0.40;99.90;;;;;;5031233;28;20174;-70
2021/12/07 03:06:15;;;;;;;10.67;5.07;;;-0.40;99.90;;;;;;5031222;28;20897;-70
2021/12/07 03:09:11;;;;;;;3.00;2.77;;;-0.40;99.90;;;;;;5034187;28;20410;-69
2021/12/07 03:27:58;;;;;;;4.07;3.67;;;-0.50;99.90;;;;;;5035422;28;20410;-70
2021/12/07 03:30:25;;;;;;;5.63;4.00;;;-0.50;99.90;;;;;;5035557;28;20788;-70
2021/12/07 03:32:51;;;;;;;7.30;5.40;;;-0.50;99.90;;;;;;5034846;28;20964;-69
2021/12/07 03:35:17;;;;;;;7.00;5.17;;;-0.50;99.90;;;;;;5034385;28;20499;-70
2021/12/07 03:37:43;;;;;;;5.23;3.70;;;-0.40;99.90;;;;;;5034266;28;20175;-70
2021/12/07 03:40:11;;;;;;;7.53;5.13;;;-0.40;99.90;;;;;;5034077;28;20413;-70
2021/12/07 03:42:36;;;;;;;8.57;4.40;;;-0.50;99.90;;;;;;5034000;28;20301;-70
2021/12/07 03:45:05;;;;;;;4.50;3.73;;;-0.50;99.90;;;;;;5033750;28;20936;-70
2021/12/07 03:47:31;;;;;;;4.50;4.10;;;-0.50;99.90;;;;;;5034005;28;20167;-69
2021/12/07 03:49:56;;;;;;;6.60;5.40;;;-0.50;99.90;;;;;;5033978;28;20414;-71
2021/12/07 03:52:22;;;;;;;4.00;3.70;;;-0.50;99.90;;;;;;5032623;28;20199;-70
2021/12/07 03:54:47;;;;;;;6.37;3.50;;;-0.50;99.90;;;;;;5033922;28;20183;-70
2021/12/07 03:57:14;;;;;;;3.53;3.07;;;-0.50;99.90;;;;;;5034279;28;20163;-71
2021/12/07 03:59:39;;;;;;;6.00;4.50;;;-0.50;99.90;;;;;;5033944;28;20796;-70
2021/12/07 04:02:07;;;;;;;4.77;3.30;;;-0.50;99.90;;;;;;5033826;28;20515;-70
2021/12/07 04:04:33;;;;;;;8.53;6.57;;;-0.50;99.90;;;;;;5033895;28;20172;-70
2021/12/07 04:06:58;;;;;;;13.57;5.60;;;-0.50;99.90;;;;;;5033793;28;20966;-71
2021/12/07 04:09:23;;;;;;;5.60;4.90;;;-0.40;99.90;;;;;;5033684;28;20203;-70
2021/12/07 04:11:49;;;;;;;6.73;5.20;;;-0.40;99.90;;;;;;5033513;28;20721;-70
2021/12/07 04:14:14;;;;;;;10.60;4.00;;;-0.40;99.90;;;;;;5033440;28;20302;-70
2021/12/07 04:16:40;;;;;;;10.20;7.60;;;-0.40;99.90;;;;;;5033266;28;20172;-69
2021/12/07 04:19:06;;;;;;;6.80;2.27;;;-0.40;99.90;;;;;;5032730;28;20650;-69
2021/12/07 04:21:31;;;;;;;6.23;4.50;;;-0.40;99.90;;;;;;5033266;28;20462;-69
2021/12/07 04:23:57;;;;;;;8.97;5.17;;;-0.30;99.90;;;;;;5033350;28;20171;-70
2021/12/07 04:26:22;;;;;;;5.60;3.33;;;-0.30;99.90;;;;;;5033193;28;20195;-69
2021/12/07 04:28:48;;;;;;;10.03;3.93;;;-0.30;99.90;;;;;;5033344;28;20171;-70
2021/12/07 04:31:14;;;;;;;10.83;5.40;;;-0.30;99.90;;;;;;5033031;28;20587;-70
2021/12/07 04:33:40;;;;;;;4.23;3.63;;;-0.30;99.90;;;;;;5033273;28;20178;-70
2021/12/07 04:36:08;;;;;;;5.10;4.00;;;-0.30;99.90;;;;;;5033261;28;20418;-69
2021/12/07 04:38:34;;;;;;;8.40;3.90;;;-0.30;99.90;;;;;;5033054;28;20402;-69
2021/12/07 04:41:00;;;;;;;5.30;4.67;;;-0.30;99.90;;;;;;5032735;28;20462;-69
2021/12/07 04:43:25;;;;;;;8.03;4.27;;;-0.30;99.90;;;;;;5032781;28;20195;-69
2021/12/07 04:46:11;;;;;;;8.97;5.17;;;-0.30;99.90;;;;;;5032908;28;20668;-69
2021/12/07 04:49:10;;;;;;;6.90;5.00;;;-0.30;99.90;;;;;;5032840;28;20571;-68
2021/12/07 04:59:31;;;;;;;6.90;3.50;;;-0.20;99.90;;;;;;5031971;28;20410;-69
2021/12/07 05:01:57;;;;;;;8.07;3.70;;;-0.30;99.90;;;;;;5032507;28;20461;-69
2021/12/07 05:04:26;;;;;;;5.73;5.20;;;-0.20;99.90;;;;;;5032562;28;20285;-69
2021/12/07 05:06:58;;;;;;;7.90;3.80;;;-0.20;99.90;;;;;;5032920;28;20164;-70
2021/12/07 05:14:28;;;;;;;11.43;5.33;;;-0.20;99.90;;;;;;5032407;28;20742;-69
2021/12/07 05:38:38;;;;;;;8.63;4.10;;;-0.30;99.90;;;;;;5033330;28;20405;-69
2021/12/07 05:41:07;;;;;;;9.23;8.43;;;-0.40;99.90;;;;;;5033765;28;20446;-69
2021/12/07 05:43:32;;;;;;;6.40;4.67;;;-0.40;99.90;;;;;;5032469;28;20286;-69
2021/12/07 05:45:58;;;;;;;5.43;3.77;;;-0.40;99.90;;;;;;5031812;28;20411;-69
2021/12/07 05:48:23;;;;;;;9.97;6.87;;;-0.40;99.90;;;;;;5032402;28;20245;-69
2021/12/07 05:50:49;;;;;;;6.83;4.60;;;-0.40;99.90;;;;;;5032185;28;20167;-69
2021/12/07 05:53:14;;;;;;;5.87;5.27;;;-0.40;99.90;;;;;;5032185;28;20270;-69
2021/12/07 05:55:41;;;;;;;7.93;6.60;;;-0.40;99.90;;;;;;5032462;28;20517;-69
2021/12/07 05:58:11;;;;;;;10.60;4.77;;;-0.40;99.90;;;;;;5032094;28;20529;-69
2021/12/07 06:00:39;;;;;;;13.93;6.33;;;-0.50;99.90;;;;;;5032368;28;20405;-69
2021/12/07 06:03:09;;;;;;;5.37;4.90;;;-0.50;99.90;;;;;;5032179;28;20488;-69
2021/12/07 06:05:36;;;;;;;9.33;6.07;;;-0.50;99.90;;;;;;5031966;28;20410;-69
2021/12/07 06:08:01;;;;;;;7.10;5.63;;;-0.60;99.90;;;;;;5031848;28;20909;-69
2021/12/07 06:10:27;;;;;;;6.67;5.00;;;-0.60;99.90;;;;;;5031528;28;20405;-69
2021/12/07 06:12:53;;;;;;;8.97;6.70;;;-0.60;99.90;;;;;;5031514;28;20646;-69
2021/12/07 06:15:21;;;;;;;9.10;5.87;;;-0.60;99.90;;;;;;5031493;28;20410;-69
2021/12/07 06:17:48;;;;;;;4.83;4.40;;;-0.60;99.90;;;;;;5031828;28;20415;-69
2021/12/07 06:20:15;;;;;;;8.67;4.03;;;-0.60;99.90;;;;;;5032600;28;20456;-68
2021/12/07 06:22:41;;;;;;;7.60;4.20;;;-0.60;99.90;;;;;;5031668;28;20462;-69
2021/12/07 06:25:08;;;;;;;8.33;5.40;;;-0.60;99.90;;;;;;5031388;28;20414;-69
2021/12/07 06:27:33;;;;;;;7.40;6.47;;;-0.60;99.90;;;;;;5030368;28;20172;-69
2021/12/07 06:29:59;;;;;;;20.63;10.20;;;-0.60;99.90;;;;;;5031852;28;20827;-69
2021/12/07 06:32:25;;;;;;;9.70;7.37;;;-0.60;99.90;;;;;;5031453;28;20198;-68
2021/12/07 06:34:51;;;;;;;8.40;3.90;;;-0.70;99.90;;;;;;5031386;28;20549;-68
2021/12/07 06:37:16;;;;;;;9.23;5.60;;;-0.70;99.90;;;;;;5031410;28;20416;-69
2021/12/07 06:39:42;;;;;;;8.27;6.57;;;-0.70;99.90;;;;;;5031208;28;20175;-69
2021/12/07 06:42:08;;;;;;;8.93;5.37;;;-0.70;99.90;;;;;;5031741;28;20638;-69
2021/12/07 06:44:33;;;;;;;6.67;4.60;;;-0.80;99.90;;;;;;5034708;28;20186;-69
2021/12/07 06:46:59;;;;;;;10.83;7.00;;;-0.70;99.90;;;;;;5035066;28;20573;-69
2021/12/07 06:49:25;;;;;;;10.53;4.17;;;-0.80;99.90;;;;;;5034984;28;20242;-69
2021/12/07 06:51:51;;;;;;;9.50;6.50;;;-0.80;99.90;;;;;;5034790;28;20422;-69
2021/12/07 06:54:17;;;;;;;14.07;5.47;;;-0.80;99.90;;;;;;5034929;28;20206;-69
2021/12/07 06:56:43;;;;;;;11.87;7.87;;;-0.80;99.90;;;;;;5034875;28;20749;-69
2021/12/07 06:59:08;;;;;;;12.20;7.80;;;-0.80;99.90;;;;;;5034729;28;20413;-68
2021/12/07 07:01:34;;;;;;;8.20;6.57;;;-0.80;99.90;;;;;;5034580;28;20200;-69
2021/12/07 07:04:00;;;;;;;7.03;5.27;;;-0.80;99.90;;;;;;5034928;28;20180;-69
2021/12/07 07:06:26;;;;;;;10.70;5.90;;;-0.80;99.90;;;;;;5034818;28;20631;-68
2021/12/07 07:08:51;;;;;;;13.77;5.97;;;-0.70;99.90;;;;;;5035808;28;20417;-71
2021/12/07 07:11:18;;;;;;;10.30;7.07;;;-0.70;99.90;;;;;;5035232;28;20199;-68
2021/12/07 07:13:45;;;;;;;9.57;8.60;;;-0.70;99.90;;;;;;5034389;28;20386;-69
2021/12/07 07:16:11;;;;;;;10.90;6.70;;;-0.70;99.90;;;;;;5025961;28;20445;-70
2021/12/07 07:18:36;;;;;;;7.60;6.80;;;-0.70;99.90;;;;;;5029285;28;20426;-69
2021/12/07 07:21:02;;;;;;;6.80;4.97;;;-0.70;99.90;;;;;;5018091;28;20211;-69
2021/12/07 07:23:28;;;;;;;13.97;9.40;;;-0.70;99.90;;;;;;5019623;28;20172;-69
2021/12/07 07:25:55;;;;;;;9.57;8.67;;;-0.60;99.90;;;;;;5034166;28;20768;-69
2021/12/07 07:28:28;;;;;;;8.67;6.30;;;-0.60;99.90;;;;;;5033885;28;20410;-70
2021/12/07 07:30:54;;;;;;;8.00;6.90;;;-0.60;99.90;;;;;;5034186;28;20913;-69
2021/12/07 07:33:20;;;;;;;13.43;8.47;;;-0.60;99.90;;;;;;5022192;28;20481;-69
2021/12/07 07:35:46;;;;;;;11.93;7.43;;;-0.50;99.90;;;;;;5014226;28;20407;-69
2021/12/07 07:38:12;;;;;;;13.77;7.10;;;-0.50;99.90;;;;;;5014451;28;20168;-70
2021/12/07 07:40:37;;;;;;;10.00;5.40;;;-0.50;99.90;;;;;;5014252;28;20928;-69
2021/12/07 07:43:03;;;;;;;9.03;8.03;;;-0.50;99.90;;;;;;5014193;28;20208;-70
2021/12/07 07:45:29;;;;;;;17.57;8.43;;;-0.50;99.90;;;;;;5014348;28;20184;-71
2021/12/07 07:47:55;;;;;;;9.40;6.07;;;-0.40;99.90;;;;;;5028997;28;20546;-68
2021/12/07 07:50:21;;;;;;;13.13;5.93;;;0.10;99.90;;;;;;5033929;28;20172;-72
2021/12/07 07:52:46;;;;;;;8.80;5.40;;;0.30;99.90;;;;;;5034360;28;20438;-69
2021/12/07 07:55:13;;;;;;;10.53;6.17;;;-0.10;99.90;;;;;;5032873;28;20410;-71
2021/12/07 07:57:38;;;;;;;10.40;6.43;;;-0.20;99.90;;;;;;5033832;28;20187;-72
2021/12/07 08:00:08;;;;;;;9.97;7.10;;;-0.20;99.90;;;;;;5032859;28;20468;-71
2021/12/07 08:02:33;;;;;;;17.97;6.90;;;-0.30;99.90;;;;;;5027166;28;20215;-71
2021/12/07 08:04:59;;;;;;;13.10;7.30;;;-0.30;99.90;;;;;;5013853;28;20450;-69
2021/12/07 08:07:25;;;;;;;8.57;7.20;;;-0.20;99.90;;;;;;5017367;28;20187;-70
2021/12/07 08:09:51;;;;;;;6.97;5.83;;;-0.30;99.90;;;;;;5022908;28;20168;-69
2021/12/07 08:12:16;;;;;;;8.23;7.00;;;-0.30;99.90;;;;;;5017237;28;20497;-72
2021/12/07 08:14:42;;;;;;;12.53;7.57;;;-0.20;99.90;;;;;;5016921;28;20250;-69
2021/12/07 08:17:07;;;;;;;12.20;6.87;;;-0.20;99.90;;;;;;5033454;28;20176;-70
2021/12/07 08:19:33;;;;;;;5.00;4.30;;;-0.20;99.90;;;;;;5033279;28;20187;-70
2021/12/07 08:21:58;;;;;;;9.80;5.20;;;-0.20;99.90;;;;;;5033235;28;20865;-69
2021/12/07 08:24:24;;;;;;;7.00;6.30;;;-0.20;99.90;;;;;;5033135;28;20665;-70
2021/12/07 08:26:49;;;;;;;8.40;4.63;;;-0.20;99.90;;;;;;5031779;28;20241;-70
2021/12/07 08:29:15;;;;;;;21.33;8.40;;;-0.20;99.90;;;;;;5031199;28;20182;-70
2021/12/07 08:31:40;;;;;;;7.87;5.47;;;-0.20;99.90;;;;;;5032582;28;20200;-74
2021/12/07 08:34:06;;;;;;;7.57;6.03;;;-0.20;99.90;;;;;;5032855;28;20182;-70
2021/12/07 08:36:31;;;;;;;6.67;6.00;;;-0.10;99.90;;;;;;5033022;28;20536;-70
2021/12/07 08:38:57;;;;;;;8.77;6.53;;;-0.20;99.90;;;;;;5033008;28;20171;-70
2021/12/07 08:41:23;;;;;;;5.70;4.93;;;-0.10;99.90;;;;;;5032503;28;20298;-70
2021/12/07 08:43:49;;;;;;;14.57;8.80;;;-0.10;99.90;;;;;;5032555;28;20597;-70
2021/12/07 08:46:15;;;;;;;7.33;6.40;;;-0.10;99.90;;;;;;5032472;28;20263;-70
2021/12/07 08:48:42;;;;;;;12.00;6.93;;;0.00;99.90;;;;;;5032866;28;20402;-72
2021/12/07 08:51:09;;;;;;;7.90;5.90;;;0.00;99.90;;;;;;5032594;28;20917;-73
2021/12/07 08:53:40;;;;;;;6.40;4.87;;;0.00;99.90;;;;;;5032587;28;20411;-70
2021/12/07 09:01:34;;;;;;;7.77;4.30;;;0.00;99.90;;;;;;5031076;28;20782;-71
2021/12/07 09:04:00;;;;;;;9.33;5.40;;;0.00;99.90;;;;;;5027014;28;20497;-70
2021/12/07 09:06:27;;;;;;;8.10;7.10;;;0.10;99.90;;;;;;5031903;28;20176;-70
2021/12/07 09:08:53;;;;;;;10.23;5.23;;;0.20;99.90;;;;;;5031882;28;20506;-70
2021/12/07 09:11:19;;;;;;;7.50;6.40;;;0.10;99.90;;;;;;5031943;28;20430;-71
2021/12/07 09:13:45;;;;;;;5.73;4.80;;;0.20;99.90;;;;;;5031876;28;20394;-70
2021/12/07 09:16:14;;;;;;;7.83;7.00;;;0.20;99.90;;;;;;5031797;28;20512;-68
2021/12/07 09:18:41;;;;;;;12.30;5.67;;;0.20;99.90;;;;;;5032076;28;20531;-69
2021/12/07 09:21:07;;;;;;;11.83;4.23;;;0.20;99.90;;;;;;5031915;28;20410;-69
2021/12/07 09:23:33;;;;;;;14.10;7.40;;;0.30;99.90;;;;;;5031892;28;20411;-70
2021/12/07 09:25:59;;;;;;;7.20;5.97;;;0.30;99.90;;;;;;5032084;28;20403;-70
2021/12/07 09:28:24;;;;;;;7.93;6.60;;;0.30;99.90;;;;;;5032747;28;20417;-71
2021/12/07 09:30:53;;;;;;;9.87;5.83;;;0.30;99.90;;;;;;5032823;28;20481;-69
2021/12/07 09:33:20;;;;;;;7.57;6.83;;;0.20;99.90;;;;;;5033772;28;20195;-70
2021/12/07 09:35:46;;;;;;;8.73;5.73;;;0.20;99.90;;;;;;5033630;28;20451;-69
2021/12/07 09:38:12;;;;;;;13.00;6.87;;;0.20;99.90;;;;;;5031917;28;20448;-69
2021/12/07 09:40:38;;;;;;;12.93;7.33;;;0.20;99.90;;;;;;5031939;28;20168;-69
2021/12/07 09:43:04;;;;;;;13.53;7.90;;;0.20;99.90;;;;;;5031652;28;20278;-69
2021/12/07 09:45:30;;;;;;;8.53;5.53;;;0.20;99.90;;;;;;5027678;28;20404;-69
2021/12/07 09:48:01;;;;;;;6.47;5.97;;;0.40;99.90;;;;;;5025205;28;20410;-69
2021/12/07 09:50:28;;;;;;;13.30;5.50;;;0.30;99.90;;;;;;5031592;28;20445;-70
2021/12/07 09:52:53;;;;;;;8.43;7.50;;;0.30;99.90;;;;;;5025564;28;20444;-70
2021/12/07 09:55:19;;;;;;;9.80;6.47;;;0.30;99.90;;;;;;5031080;28;20419;-69
2021/12/07 09:57:46;;;;;;;12.80;7.27;;;0.30;99.90;;;;;;5031273;28;20633;-70
2021/12/07 10:00:15;;;;;;;11.60;7.33;;;0.30;99.90;;;;;;5031220;28;20182;-71
2021/12/07 10:02:41;;;;;;;9.60;7.77;;;0.30;99.90;;;;;;5022847;28;20458;-71
2021/12/07 10:05:07;;;;;;;7.90;3.60;;;0.40;99.90;;;;;;5031289;28;20501;-69
2021/12/07 10:07:37;;;;;;;9.37;4.70;;;0.40;99.90;;;;;;5026588;28;20620;-71
2021/12/07 10:10:07;;;;;;;9.40;6.20;;;0.50;99.90;;;;;;5014980;28;20411;-71
2021/12/07 10:12:33;;;;;;;9.70;7.37;;;0.60;99.90;;;;;;5021567;28;20447;-71
2021/12/07 10:15:05;;;;;;;14.13;7.67;;;0.50;99.90;;;;;;5012053;28;20411;-73
2021/12/07 10:17:30;;;;;;;8.50;6.37;;;0.40;99.90;;;;;;5028302;28;20185;-69
2021/12/07 10:19:56;;;;;;;19.87;10.03;;;0.40;99.90;;;;;;5035402;28;20410;-70
2021/12/07 10:22:21;;;;;;;10.30;6.30;;;0.60;99.90;;;;;;5035472;28;20274;-68
2021/12/07 10:24:54;;;;;;;10.40;6.33;;;0.60;99.90;;;;;;5029172;28;20190;-69
2021/12/07 10:27:34;;;;;;;13.40;8.17;;;0.70;99.90;;;;;;5032829;28;20175;-70
2021/12/07 10:30:05;;;;;;;16.00;8.80;;;0.70;99.90;;;;;;5035555;28;20512;-68
2021/12/07 10:32:31;;;;;;;11.80;5.97;;;0.80;99.90;;;;;;5035250;28;20438;-68
2021/12/07 10:34:56;;;;;;;10.23;6.13;;;0.90;99.90;;;;;;5035181;28;20471;-68
2021/12/07 10:37:22;;;;;;;9.67;7.30;;;0.90;99.90;;;;;;5035347;28;20178;-68
2021/12/07 10:39:55;;;;;;;10.40;6.57;;;0.90;99.90;;;;;;5035091;28;20175;-68
2021/12/07 10:42:26;;;;;;;10.17;7.27;;;0.80;99.90;;;;;;5035103;28;20199;-69
2021/12/07 10:44:53;;;;;;;5.17;4.77;;;0.70;99.90;;;;;;5035106;28;20430;-69
2021/12/07 10:47:21;;;;;;;8.30;7.50;;;0.70;99.90;;;;;;5035903;28;20409;-70
2021/12/07 10:49:54;;;;;;;11.47;8.67;;;0.80;99.90;;;;;;5037128;28;20472;-69
2021/12/07 10:52:29;;;;;;;7.07;6.33;;;0.90;99.90;;;;;;5034701;28;20944;-68
2021/12/07 10:54:55;;;;;;;6.40;5.80;;;1.00;99.90;;;;;;5034924;28;20410;-68
2021/12/07 10:57:22;;;;;;;12.40;8.27;;;0.90;99.90;;;;;;5034749;28;20896;-70
2021/12/07 10:59:58;;;;;;;12.57;5.43;;;0.90;99.90;;;;;;5034697;28;20218;-69
2021/12/07 11:02:30;;;;;;;14.57;10.80;;;0.80;99.90;;;;;;5029959;28;20470;-70
2021/12/07 11:04:56;;;;;;;7.10;5.20;;;0.80;99.90;;;;;;5014933;28;20418;-70
2021/12/07 11:07:27;;;;;;;17.17;7.63;;;0.80;99.90;;;;;;5014849;28;20411;-70
2021/12/07 11:10:00;;;;;;;9.07;5.67;;;0.80;99.90;;;;;;5014931;28;20161;-70
2021/12/07 11:12:31;;;;;;;10.23;6.33;;;0.70;99.90;;;;;;5018710;28;20517;-70
2021/12/07 11:14:59;;;;;;;8.17;7.37;;;0.60;99.90;;;;;;5014714;28;20777;-70
2021/12/07 11:17:33;;;;;;;11.80;7.97;;;0.60;99.90;;;;;;5029458;28;20521;-70
2021/12/07 11:20:00;;;;;;;14.10;7.13;;;0.60;99.90;;;;;;5034399;28;20411;-70
2021/12/07 11:22:33;;;;;;;15.87;7.60;;;0.70;99.90;;;;;;5034842;28;20465;-69
2021/12/07 11:25:03;;;;;;;9.63;6.30;;;0.70;99.90;;;;;;5034591;28;20421;-70
2021/12/07 11:30:27;;;;;;;12.77;8.00;;;0.60;99.90;;;;;;5034692;28;20401;-70
2021/12/07 11:32:57;;;;;;;15.57;7.50;;;0.60;99.90;;;;;;5022248;28;20541;-70
2021/12/07 11:35:27;;;;;;;15.13;6.40;;;0.60;99.90;;;;;;5034741;28;20405;-71
2021/12/07 11:37:58;;;;;;;8.33;6.97;;;0.70;99.90;;;;;;5022507;28;20957;-72
2021/12/07 11:40:27;;;;;;;8.43;7.17;;;0.70;99.90;;;;;;5026015;28;20832;-70
2021/12/07 11:42:53;;;;;;;15.93;12.23;;;0.70;99.90;;;;;;5034012;28;20461;-70
2021/12/07 11:45:31;;;;;;;10.77;8.00;;;0.80;99.90;;;;;;5033324;28;20529;-70
2021/12/07 11:47:59;;;;;;;18.07;6.37;;;0.90;99.90;;;;;;5014868;28;20657;-69
2021/12/07 11:50:36;;;;;;;12.27;6.10;;;0.90;99.90;;;;;;5024225;28;20409;-70
2021/12/07 11:53:14;;;;;;;14.33;9.37;;;0.80;99.90;;;;;;5033686;28;20491;-69
2021/12/07 11:55:42;;;;;;;15.80;7.40;;;0.80;99.90;;;;;;5025941;28;20818;-71
2021/12/07 11:58:09;;;;;;;8.90;6.13;;;0.70;99.90;;;;;;5025866;28;20403;-71
2021/12/07 12:00:43;;;;;;;7.63;6.83;;;0.70;99.90;;;;;;5033662;28;20490;-70
2021/12/07 12:03:12;;;;;;;9.90;6.17;;;0.80;99.90;;;;;;5014395;28;20823;-71
2021/12/07 12:05:41;;;;;;;8.57;5.77;;;0.80;99.90;;;;;;5013598;28;20408;-70
2021/12/07 12:08:09;;;;;;;12.20;8.00;;;0.90;99.90;;;;;;5012998;28;20424;-72
2021/12/07 12:10:40;;;;;;;18.83;7.17;;;0.90;99.90;;;;;;5019661;28;20525;-70
2021/12/07 12:13:42;;;;;;;11.03;6.20;;;0.90;99.90;;;;;;5031641;28;20488;-70
2021/12/07 12:16:30;;;;;;;11.90;6.40;;;0.90;99.90;;;;;;5033421;28;20422;-70
2021/12/07 12:19:07;;;;;;;23.03;10.80;;;0.80;99.90;;;;;;5035306;28;20414;-71
2021/12/07 12:21:58;;;;;;;15.00;8.07;;;0.80;99.90;;;;;;5033579;28;21002;-70
2021/12/07 12:24:38;;;;;;;9.90;5.80;;;0.80;99.90;;;;;;5031923;28;20425;-71
2021/12/07 12:27:09;;;;;;;11.87;8.03;;;0.70;99.90;;;;;;5035368;28;20424;-70
2021/12/07 12:29:37;;;;;;;18.03;8.47;;;0.80;99.90;;;;;;5030744;28;20973;-71
2021/12/07 12:32:03;;;;;;;9.93;6.03;;;0.90;99.90;;;;;;5026044;28;20438;-71
2021/12/07 12:34:31;;;;;;;6.23;4.37;;;0.80;99.90;;;;;;5019022;28;20779;-70
2021/12/07 12:37:11;;;;;;;14.93;8.57;;;0.80;99.90;;;;;;5015901;28;20965;-70
2021/12/07 12:39:55;;;;;;;13.60;6.80;;;0.80;99.90;;;;;;5032543;28;20660;-71
2021/12/07 12:42:30;;;;;;;11.27;6.70;;;0.80;99.90;;;;;;5034521;28;20461;-70
2021/12/07 12:45:11;;;;;;;9.53;7.30;;;0.90;99.90;;;;;;5032885;28;20429;-69
2021/12/07 12:47:38;;;;;;;21.47;7.43;;;1.00;99.90;;;;;;5032897;28;20464;-70
2021/12/07 12:50:21;;;;;;;10.03;6.87;;;0.90;99.90;;;;;;5027368;28;20924;-70
2021/12/07 12:52:53;;;;;;;11.57;7.03;;;0.90;99.90;;;;;;5025953;28;20437;-71
2021/12/07 12:55:32;;;;;;;14.27;8.73;;;0.90;99.90;;;;;;5032662;28;20418;-70
2021/12/07 12:57:59;;;;;;;11.20;7.37;;;1.00;99.90;;;;;;5032652;28;20418;-70
2021/12/07 13:00:45;;;;;;;16.10;6.83;;;1.10;99.90;;;;;;5032486;28;20497;-70
2021/12/07 13:03:10;;;;;;;17.30;9.40;;;1.20;99.90;;;;;;5032105;28;20478;-70
2021/12/07 13:05:37;;;;;;;16.27;8.20;;;1.10;99.90;;;;;;5032187;28;20893;-69
2021/12/07 13:08:17;;;;;;;17.80;7.43;;;1.10;99.90;;;;;;5032551;28;20159;-70
2021/12/07 13:11:04;;;;;;;14.67;8.33;;;1.00;99.90;;;;;;5032456;28;20802;-70
2021/12/07 13:13:33;;;;;;;11.57;8.77;;;1.00;99.90;;;;;;5032413;28;20407;-69
2021/12/07 13:15:59;;;;;;;10.70;8.00;;;1.00;99.90;;;;;;5031810;28;20759;-70
2021/12/07 13:18:32;;;;;;;18.40;7.80;;;1.10;99.90;;;;;;5032053;28;20430;-74
2021/12/07 13:20:57;;;;;;;17.53;9.00;;;1.00;99.90;;;;;;5048790;28;20423;-69
2021/12/07 13:23:31;;;;;;;16.97;9.63;;;1.10;99.90;;;;;;5032645;28;20503;-72
2021/12/07 13:25:57;;;;;;;12.03;7.90;;;1.30;99.90;;;;;;5032331;28;20175;-70
2021/12/07 13:28:25;;;;;;;18.63;7.47;;;1.20;99.90;;;;;;5032782;28;20414;-71
2021/12/07 13:31:01;;;;;;;13.50;6.90;;;1.20;99.90;;;;;;5032360;28;20449;-70
2021/12/07 13:33:34;;;;;;;9.20;6.60;;;1.30;99.90;;;;;;5032208;28;20448;-70
2021/12/07 13:36:21;;;;;;;14.00;7.07;;;1.10;99.90;;;;;;5032256;28;20422;-70
2021/12/07 13:38:47;;;;;;;16.63;10.63;;;1.00;99.90;;;;;;5031684;28;20425;-71
2021/12/07 13:41:15;;;;;;;9.87;6.40;;;1.00;99.90;;;;;;5032244;28;20403;-70
2021/12/07 13:43:44;;;;;;;17.17;10.63;;;1.00;99.90;;;;;;5032013;28;20211;-69
2021/12/07 13:46:25;;;;;;;13.90;7.40;;;1.00;99.90;;;;;;5032419;28;20403;-71
2021/12/07 13:49:01;;;;;;;12.40;10.17;;;1.00;99.90;;;;;;5032476;28;20756;-70
2021/12/07 13:51:27;;;;;;;14.90;7.37;;;1.00;99.90;;;;;;5032549;28;20521;-69
2021/12/07 13:53:53;;;;;;;14.80;9.63;;;1.00;99.90;;;;;;5032015;28;20421;-69
2021/12/07 13:56:18;;;;;;;12.97;8.83;;;1.10;99.90;;;;;;5031707;28;20414;-70
2021/12/07 13:59:11;;;;;;;13.10;9.67;;;1.00;99.90;;;;;;5031536;28;20710;-69
2021/12/07 14:01:39;;;;;;;11.97;8.20;;;1.00;99.90;;;;;;5031444;28;20572;-69
2021/12/07 14:04:07;;;;;;;10.97;6.70;;;1.00;99.90;;;;;;5031465;28;20421;-70
2021/12/07 14:06:33;;;;;;;9.20;6.67;;;0.90;99.90;;;;;;5031634;28;20395;-69
2021/12/07 14:09:17;;;;;;;17.97;9.50;;;0.80;99.90;;;;;;5031817;28;20402;-70
2021/12/07 14:11:43;;;;;;;14.63;7.53;;;0.80;99.90;;;;;;5021603;28;20453;-70
2021/12/07 14:14:15;;;;;;;13.20;8.37;;;0.80;99.90;;;;;;5034335;28;20402;-71
2021/12/07 14:16:42;;;;;;;19.53;8.50;;;0.70;99.90;;;;;;5038968;28;20450;-70
2021/12/07 14:19:08;;;;;;;12.70;7.67;;;0.70;99.90;;;;;;5040943;28;20425;-72
2021/12/07 14:21:33;;;;;;;11.90;6.20;;;0.70;99.90;;;;;;5038348;28;20462;-70
2021/12/07 14:24:15;;;;;;;12.60;7.77;;;0.70;99.90;;;;;;5038838;28;20587;-70
2021/12/07 14:26:42;;;;;;;25.17;9.40;;;0.80;99.90;;;;;;5039389;28;20535;-70
2021/12/07 14:29:15;;;;;;;14.70;7.73;;;0.70;99.90;;;;;;5040664;28;20461;-71
2021/12/07 14:32:10;;;;;;;17.13;8.37;;;0.70;99.90;;;;;;5039010;28;20445;-69